createdAt,value
2023-01-04T00:00:18.995Z,11.94
2023-01-04T00:02:45.787Z,12.11
2023-01-04T00:05:12.565Z,12.41
2023-01-04T00:07:39.196Z,12.96
2023-01-04T00:10:06.096Z,13.19
2023-01-04T00:12:34.817Z,13.01
2023-01-04T00:15:01.438Z,14.38
2023-01-04T00:17:28.024Z,13.26
2023-01-04T00:19:54.628Z,13.43
2023-01-04T00:22:21.297Z,13.95
2023-01-04T00:24:47.915Z,13.94
2023-01-04T00:27:14.537Z,13.90
2023-01-04T00:29:41.135Z,14.05
2023-01-04T00:32:07.837Z,14.84
2023-01-04T00:34:34.436Z,14.16
2023-01-04T00:37:01.037Z,14.88
2023-01-04T00:39:27.719Z,14.14
2023-01-04T00:41:59.822Z,14.03
2023-01-04T00:44:28.392Z,13.91
2023-01-04T00:46:57.615Z,14.84
2023-01-04T00:49:25.236Z,15.06
2023-01-04T00:51:52.033Z,14.95
2023-01-04T00:54:19.119Z,14.49
2023-01-04T00:56:45.751Z,14.67
2023-01-04T00:59:15.082Z,15.01
2023-01-04T01:01:42.975Z,15.37
2023-01-04T01:04:13.458Z,15.63
2023-01-04T01:06:40.569Z,16.42
2023-01-04T01:09:08.200Z,16.47
2023-01-04T01:11:35.011Z,16.60
2023-01-04T01:14:01.625Z,15.94
2023-01-04T01:16:53.921Z,17.69
2023-01-04T01:19:16.715Z,16.47
2023-01-04T01:21:43.387Z,16.02
2023-01-04T01:24:18.702Z,16.49
2023-01-04T01:26:45.732Z,16.97
2023-01-04T01:29:12.526Z,17.25
2023-01-04T01:31:41.169Z,17.91
2023-01-04T01:34:08.243Z,17.45
2023-01-04T01:36:36.536Z,16.53
2023-01-04T01:39:03.306Z,15.12
2023-01-04T01:41:35.382Z,16.12
2023-01-04T01:44:06.647Z,15.18
2023-01-04T01:46:50.460Z,15.45
2023-01-04T01:49:32.309Z,16.28
2023-01-04T01:52:03.840Z,15.02
2023-01-04T01:54:36.965Z,16.02
2023-01-04T01:57:07.332Z,17.66
2023-01-04T01:59:40.458Z,17.53
2023-01-04T02:02:08.490Z,16.64
2023-01-04T02:04:41.504Z,17.20
2023-01-04T02:07:11.999Z,15.85
2023-01-04T02:09:40.672Z,15.54
2023-01-04T02:12:11.775Z,15.04
2023-01-04T02:14:40.621Z,16.00
2023-01-04T02:17:16.180Z,16.08
2023-01-04T02:20:04.200Z,15.66
2023-01-04T02:22:33.510Z,15.79
2023-01-04T02:25:54.224Z,16.07
2023-01-04T02:28:39.021Z,16.05
2023-01-04T02:31:24.643Z,16.47
2023-01-04T02:34:13.164Z,16.52
2023-01-04T02:36:51.975Z,16.71
2023-01-04T02:39:48.835Z,17.12
2023-01-04T02:42:27.405Z,16.94
2023-01-04T02:45:04.754Z,17.28
2023-01-04T02:47:36.681Z,16.28
2023-01-04T02:50:17.411Z,16.52
2023-01-04T02:52:44.151Z,16.59
2023-01-04T02:55:11.010Z,17.33
2023-01-04T02:58:00.357Z,15.72
2023-01-04T03:00:54.545Z,15.25
2023-01-04T03:03:34.170Z,14.89
2023-01-04T03:06:16.321Z,15.12
2023-01-04T03:08:54.988Z,15.35
2023-01-04T03:11:21.863Z,15.22
2023-01-04T03:13:48.917Z,14.95
2023-01-04T03:16:23.096Z,14.31
2023-01-04T03:18:56.194Z,14.37
2023-01-04T03:21:27.043Z,14.34
2023-01-04T03:24:00.484Z,13.14
2023-01-04T03:26:34.022Z,13.65
2023-01-04T03:29:16.005Z,13.95
2023-01-04T03:32:06.696Z,14.70
2023-01-04T03:34:33.876Z,14.55
2023-01-04T03:37:15.748Z,13.99
2023-01-04T03:40:01.182Z,13.26
2023-01-04T03:42:42.273Z,13.01
2023-01-04T03:45:17.948Z,14.21
2023-01-04T03:48:23.122Z,13.54
2023-01-04T03:50:58.635Z,12.91
2023-01-04T03:53:27.397Z,13.74
2023-01-04T03:55:58.305Z,14.81
2023-01-04T03:58:25.846Z,15.00
2023-01-04T04:00:52.729Z,15.33
2023-01-04T04:03:19.389Z,15.02
2023-01-04T04:05:48.084Z,14.96
2023-01-04T04:08:14.719Z,14.50
2023-01-04T04:10:41.348Z,15.02
2023-01-04T04:13:07.974Z,15.48
2023-01-04T04:15:35.639Z,15.19
2023-01-04T04:18:02.281Z,15.77
2023-01-04T04:20:28.935Z,15.26
2023-01-04T04:22:55.542Z,14.35
2023-01-04T04:25:22.150Z,15.36
2023-01-04T04:27:48.885Z,15.23
2023-01-04T04:30:15.580Z,15.19
2023-01-04T04:32:42.704Z,16.04
2023-01-04T04:35:10.039Z,15.55
2023-01-04T04:37:36.653Z,15.90
2023-01-04T04:40:05.000Z,16.07
2023-01-04T04:42:31.664Z,15.67
2023-01-04T04:44:58.291Z,15.38
2023-01-04T04:47:24.946Z,15.24
2023-01-04T04:49:51.832Z,15.60
2023-01-04T04:52:18.438Z,16.33
2023-01-04T04:54:45.067Z,15.57
2023-01-04T04:57:11.656Z,14.31
2023-01-04T04:59:38.243Z,14.29
2023-01-04T05:02:05.005Z,15.07
2023-01-04T05:04:31.748Z,15.34
2023-01-04T05:06:58.384Z,13.87
2023-01-04T05:09:25.058Z,14.31
2023-01-04T05:11:51.737Z,14.48
2023-01-04T05:14:18.423Z,14.03
2023-01-04T05:16:45.172Z,13.75
2023-01-04T05:19:11.852Z,14.11
2023-01-04T05:21:38.518Z,14.49
2023-01-04T05:24:05.361Z,13.55
2023-01-04T05:26:32.171Z,13.60
2023-01-04T05:28:58.862Z,15.00
2023-01-04T05:31:26.137Z,15.86
2023-01-04T05:33:52.755Z,17.40
2023-01-04T05:36:19.360Z,17.81
2023-01-04T05:38:46.060Z,18.49
2023-01-04T05:41:12.649Z,18.70
2023-01-04T05:43:39.298Z,17.99
2023-01-04T05:46:05.988Z,18.42
2023-01-04T05:48:32.606Z,17.15
2023-01-04T05:50:59.204Z,18.27
2023-01-04T05:53:25.816Z,18.04
2023-01-04T05:55:52.647Z,17.05
2023-01-04T05:58:19.342Z,16.79
2023-01-04T06:00:45.954Z,16.93
2023-01-04T06:03:12.708Z,17.12
2023-01-04T06:05:39.442Z,16.22
2023-01-04T06:08:06.394Z,16.13
2023-01-04T06:10:33.312Z,16.05
2023-01-04T06:12:59.943Z,16.22
2023-01-04T06:15:26.599Z,15.79
2023-01-04T06:17:53.211Z,16.55
2023-01-04T06:20:19.888Z,16.87
2023-01-04T06:22:46.576Z,16.69
2023-01-04T06:25:13.212Z,13.48
2023-01-04T06:27:39.847Z,14.21
2023-01-04T06:30:07.018Z,13.59
2023-01-04T06:32:33.850Z,14.70
2023-01-04T06:35:00.496Z,14.37
2023-01-04T06:37:27.709Z,14.84
2023-01-04T06:39:54.381Z,15.16
2023-01-04T06:42:21.026Z,15.16
2023-01-04T06:44:47.681Z,16.15
2023-01-04T06:47:14.319Z,16.62
2023-01-04T06:49:40.951Z,15.69
2023-01-04T06:52:07.643Z,15.44
2023-01-04T06:54:34.299Z,16.82
2023-01-04T06:57:00.888Z,17.04
2023-01-04T06:59:27.491Z,17.89
2023-01-04T07:01:54.353Z,19.06
2023-01-04T07:04:21.269Z,20.19
2023-01-04T07:06:47.939Z,20.63
2023-01-04T07:09:14.616Z,20.05
2023-01-04T07:11:41.258Z,21.75
2023-01-04T07:14:07.890Z,20.57
2023-01-04T07:16:34.534Z,21.09
2023-01-04T07:19:01.351Z,21.13
2023-01-04T07:21:28.654Z,20.65
2023-01-04T07:23:56.581Z,20.27
2023-01-04T07:26:23.411Z,21.51
2023-01-04T07:28:50.295Z,20.66
2023-01-04T07:31:16.957Z,21.40
2023-01-04T07:33:44.150Z,21.23
2023-01-04T07:36:10.936Z,22.43
2023-01-04T07:38:37.688Z,20.09
2023-01-04T07:41:04.443Z,19.85
2023-01-04T07:43:31.181Z,18.64
2023-01-04T07:45:58.032Z,19.37
2023-01-04T07:48:24.804Z,19.31
2023-01-04T07:50:51.482Z,18.38
2023-01-04T07:53:18.147Z,19.74
2023-01-04T07:55:45.069Z,18.99
2023-01-04T07:58:12.512Z,19.97
2023-01-04T08:00:39.293Z,19.75
2023-01-04T08:03:05.997Z,20.23
2023-01-04T08:05:34.599Z,19.47
2023-01-04T08:08:01.688Z,19.38
2023-01-04T08:10:28.395Z,18.14
2023-01-04T08:12:58.131Z,16.04
2023-01-04T08:15:24.784Z,17.52
2023-01-04T08:17:51.449Z,18.65
2023-01-04T08:20:18.739Z,17.47
2023-01-04T08:22:45.383Z,17.80
2023-01-04T08:25:12.039Z,17.59
2023-01-04T08:27:38.667Z,17.50
2023-01-04T08:30:05.787Z,19.07
2023-01-04T08:32:32.438Z,17.85
2023-01-04T08:34:59.266Z,17.82
2023-01-04T08:37:25.901Z,17.92
2023-01-04T08:39:52.563Z,18.80
2023-01-04T08:42:25.171Z,17.30
2023-01-04T08:44:59.937Z,17.77
2023-01-04T08:47:28.251Z,17.73
2023-01-04T08:49:55.933Z,16.99
2023-01-04T08:52:23.059Z,17.91
2023-01-04T08:54:50.105Z,18.87
2023-01-04T08:57:19.937Z,19.25
2023-01-04T08:59:46.721Z,18.28
2023-01-04T09:02:23.271Z,17.17
2023-01-04T09:04:50.828Z,17.16
2023-01-04T09:07:18.145Z,17.73
2023-01-04T09:09:44.828Z,18.63
2023-01-04T09:12:11.491Z,18.77
2023-01-04T09:14:41.000Z,19.14
2023-01-04T09:17:07.672Z,19.72
2023-01-04T09:19:34.614Z,19.96
2023-01-04T09:22:01.746Z,19.13
2023-01-04T09:24:28.456Z,19.00
2023-01-04T09:26:55.177Z,17.59
2023-01-04T09:29:21.910Z,18.20
2023-01-04T09:31:48.640Z,16.74
2023-01-04T09:34:17.476Z,17.38
2023-01-04T09:36:46.348Z,17.66
2023-01-04T09:39:21.835Z,18.20
2023-01-04T09:42:01.676Z,18.23
2023-01-04T09:47:51.991Z,17.45
2023-01-04T09:50:36.520Z,16.59
2023-01-04T09:53:12.176Z,16.26
2023-01-04T09:55:44.325Z,16.82
2023-01-04T09:58:23.578Z,17.52
2023-01-04T10:01:19.511Z,17.32
2023-01-04T10:04:05.995Z,16.92
2023-01-04T10:06:34.605Z,16.49
2023-01-04T10:09:06.355Z,15.76
2023-01-04T10:11:54.913Z,16.06
2023-01-04T10:15:00.723Z,15.18
2023-01-04T10:19:50.509Z,14.08
2023-01-04T10:24:02.811Z,13.32
2023-01-04T10:26:40.252Z,13.23
2023-01-04T10:29:13.052Z,12.96
2023-01-04T10:32:15.174Z,13.25
2023-01-04T10:34:44.757Z,13.43
2023-01-04T10:37:25.013Z,13.57
2023-01-04T10:39:54.134Z,13.31
2023-01-04T10:42:20.765Z,13.82
2023-01-04T10:45:09.352Z,13.51
2023-01-04T10:47:53.165Z,12.98
2023-01-04T10:50:25.082Z,13.16
2023-01-04T10:53:02.653Z,13.23
2023-01-04T10:56:26.094Z,13.23
2023-01-04T10:58:55.334Z,13.43
2023-01-04T11:01:47.061Z,13.95
2023-01-04T11:04:29.507Z,12.77
2023-01-04T11:07:07.511Z,12.57
2023-01-04T11:09:46.512Z,12.79
2023-01-04T11:12:17.925Z,12.44
2023-01-04T11:14:44.902Z,11.10
2023-01-04T11:17:13.029Z,8.91
2023-01-04T11:19:41.173Z,9.16
2023-01-04T11:22:24.195Z,8.68
2023-01-04T11:28:08.004Z,8.30
2023-01-04T11:31:02.018Z,7.76
2023-01-04T11:33:28.792Z,10.01
2023-01-04T11:35:57.878Z,9.04
2023-01-04T11:38:30.632Z,11.03
2023-01-04T11:40:57.882Z,11.85
2023-01-04T11:43:26.665Z,7.45
2023-01-04T11:46:05.530Z,8.33
2023-01-04T11:48:36.582Z,8.94
2023-01-04T11:51:04.752Z,7.80
2023-01-04T11:53:37.086Z,7.37
2023-01-04T11:56:13.172Z,7.65
2023-01-04T11:58:41.777Z,9.87
2023-01-04T12:01:29.124Z,8.09
2023-01-04T12:03:56.076Z,8.06
2023-01-04T12:06:38.472Z,8.10
2023-01-04T12:09:05.805Z,7.71
2023-01-04T12:11:36.601Z,8.95
2023-01-04T12:14:04.198Z,8.51
2023-01-04T12:16:57.597Z,12.15
2023-01-04T12:19:26.138Z,9.78
2023-01-04T12:21:57.093Z,8.76
2023-01-04T12:24:30.877Z,7.91
2023-01-04T12:26:58.608Z,8.10
2023-01-04T12:29:25.249Z,7.88
2023-01-04T12:31:52.773Z,7.81
2023-01-04T12:34:22.059Z,8.29
2023-01-04T12:36:51.363Z,8.95
2023-01-04T12:39:20.821Z,9.38
2023-01-04T12:41:47.446Z,10.01
2023-01-04T12:44:38.847Z,10.31
2023-01-04T12:47:17.711Z,10.75
2023-01-04T12:49:59.210Z,10.58
2023-01-04T12:52:48.024Z,10.51
2023-01-04T12:55:27.396Z,10.86
2023-01-04T12:57:54.184Z,10.02
2023-01-04T13:00:20.825Z,9.40
2023-01-04T13:03:16.337Z,9.71
2023-01-04T13:06:02.418Z,9.99
2023-01-04T13:08:30.343Z,9.63
2023-01-04T13:11:04.025Z,9.51
2023-01-04T13:13:49.179Z,9.34
2023-01-04T13:16:50.777Z,28.87
2023-01-04T13:19:26.372Z,63.76
2023-01-04T13:21:57.016Z,43.51
2023-01-04T13:24:33.289Z,23.10
2023-01-04T13:27:18.195Z,11.86
2023-01-04T13:29:46.488Z,11.68
2023-01-04T13:32:21.411Z,9.26
2023-01-04T13:34:57.119Z,10.75
2023-01-04T13:37:26.980Z,12.43
2023-01-04T13:40:21.677Z,9.66
2023-01-04T13:42:57.745Z,8.84
2023-01-04T13:45:49.229Z,9.35
2023-01-04T13:48:20.626Z,10.14
2023-01-04T13:51:03.875Z,8.84
2023-01-04T13:53:32.570Z,8.70
2023-01-04T13:56:01.778Z,9.80
2023-01-04T13:58:34.433Z,9.16
2023-01-04T14:01:06.818Z,8.75
2023-01-04T14:03:56.706Z,10.48
2023-01-04T14:06:39.847Z,9.83
2023-01-04T14:09:14.815Z,8.79
2023-01-04T14:12:08.515Z,9.21
2023-01-04T14:14:38.258Z,8.78
2023-01-04T14:17:14.789Z,8.29
2023-01-04T14:19:59.444Z,9.35
2023-01-04T14:22:28.093Z,8.89
2023-01-04T14:25:08.925Z,8.66
2023-01-04T14:27:42.837Z,8.99
2023-01-04T14:30:24.166Z,9.09
2023-01-04T14:33:14.053Z,9.17
2023-01-04T14:35:46.457Z,9.12
2023-01-04T14:38:22.145Z,9.07
2023-01-04T14:40:48.832Z,9.39
2023-01-04T14:43:35.012Z,9.15
2023-01-04T14:46:04.486Z,9.47
2023-01-04T14:48:31.346Z,9.01
2023-01-04T14:51:00.557Z,9.63
2023-01-04T14:53:28.025Z,9.50
2023-01-04T14:55:55.211Z,9.98
2023-01-04T14:58:22.104Z,9.88
2023-01-04T15:00:48.927Z,9.86
2023-01-04T15:03:15.861Z,10.64
2023-01-04T15:05:47.110Z,10.38
2023-01-04T15:08:13.757Z,11.16
2023-01-04T15:10:40.471Z,10.56
2023-01-04T15:13:07.145Z,10.80
2023-01-04T15:15:33.888Z,11.39
2023-01-04T15:18:00.588Z,11.56
2023-01-04T15:20:27.263Z,11.14
2023-01-04T15:22:54.090Z,10.70
2023-01-04T15:25:20.936Z,10.51
2023-01-04T15:27:47.645Z,11.42
2023-01-04T15:30:14.871Z,11.58
2023-01-04T15:32:42.008Z,10.82
2023-01-04T15:35:09.125Z,11.37
2023-01-04T15:37:35.818Z,12.60
2023-01-04T15:40:04.061Z,11.85
2023-01-04T15:42:31.091Z,11.15
2023-01-04T15:44:57.869Z,11.66
2023-01-04T15:47:24.552Z,11.22
2023-01-04T15:49:51.161Z,11.25
2023-01-04T15:52:17.752Z,11.16
2023-01-04T15:54:44.373Z,11.01
2023-01-04T15:57:11.078Z,11.25
2023-01-04T15:59:37.789Z,11.30
2023-01-04T16:02:04.448Z,11.30
2023-01-04T16:04:31.330Z,11.54
2023-01-04T16:06:58.572Z,10.66
2023-01-04T16:09:25.307Z,10.93
2023-01-04T16:11:51.963Z,11.01
2023-01-04T16:14:18.587Z,10.96
2023-01-04T16:16:45.260Z,10.79
2023-01-04T16:19:11.986Z,10.55
2023-01-04T16:21:38.614Z,11.07
2023-01-04T16:24:22.159Z,11.75
2023-01-04T16:26:52.189Z,10.78
2023-01-04T16:29:18.806Z,10.79
2023-01-04T16:31:45.567Z,10.62
2023-01-04T16:34:13.619Z,10.91
2023-01-04T16:36:40.334Z,10.87
2023-01-04T16:39:07.783Z,10.71
2023-01-04T16:41:34.738Z,10.59
2023-01-04T16:44:05.187Z,10.63
2023-01-04T16:46:34.157Z,10.84
2023-01-04T16:49:03.913Z,10.42
2023-01-04T16:51:33.813Z,10.27
2023-01-04T16:54:07.127Z,10.53
2023-01-04T16:56:34.707Z,10.68
2023-01-04T16:59:02.094Z,10.43
2023-01-04T17:01:34.492Z,10.18
2023-01-04T17:04:04.382Z,10.48
2023-01-04T17:06:34.619Z,10.14
2023-01-04T17:09:01.611Z,11.02
2023-01-04T17:14:17.281Z,10.17
2023-01-04T17:16:43.915Z,10.25
2023-01-04T17:19:10.604Z,10.65
2023-01-04T17:21:37.434Z,10.93
2023-01-04T17:24:04.170Z,11.37
2023-01-04T17:26:32.622Z,11.49
2023-01-04T17:29:01.440Z,10.55
2023-01-04T17:31:33.651Z,10.00
2023-01-04T17:34:00.738Z,10.09
2023-01-04T17:36:27.681Z,9.96
2023-01-04T17:38:54.637Z,10.60
2023-01-04T17:41:24.437Z,10.81
2023-01-04T17:43:55.472Z,10.77
2023-01-04T17:46:23.777Z,10.28
2023-01-04T17:49:17.810Z,10.13
2023-01-04T17:51:39.434Z,10.06
2023-01-04T17:54:07.056Z,10.31
2023-01-04T17:56:34.093Z,10.36
2023-01-04T17:59:02.904Z,10.45
2023-01-04T18:01:30.696Z,18.03
2023-01-04T18:03:59.096Z,18.77
2023-01-04T18:06:29.610Z,14.42
2023-01-04T18:08:57.431Z,10.99
2023-01-04T18:11:25.256Z,10.95
2023-01-04T18:13:52.716Z,10.17
2023-01-04T18:16:25.595Z,10.32
2023-01-04T18:18:54.966Z,11.22
2023-01-04T18:21:28.302Z,10.90
2023-01-04T18:29:32.957Z,12.71
2023-01-04T18:31:59.723Z,14.97
2023-01-04T18:34:26.643Z,14.22
2023-01-04T18:36:53.834Z,12.25
2023-01-04T18:39:20.536Z,10.54
2023-01-04T18:41:47.235Z,10.71
2023-01-04T18:44:32.064Z,10.48
2023-01-04T18:46:59.816Z,10.08
2023-01-04T18:49:26.510Z,9.77
2023-01-04T18:51:53.144Z,9.78
2023-01-04T18:54:19.825Z,9.35
2023-01-04T18:56:47.240Z,9.81
2023-01-04T18:59:14.680Z,9.97
2023-01-04T19:01:41.397Z,10.52
2023-01-04T19:04:08.184Z,10.22
2023-01-04T19:06:34.785Z,9.74
2023-01-04T19:09:06.281Z,10.09
2023-01-04T19:11:33.562Z,9.88
2023-01-04T19:14:03.383Z,9.88
2023-01-04T19:16:30.129Z,9.27
2023-01-04T19:19:00.742Z,9.90
2023-01-04T19:21:28.016Z,10.02
2023-01-04T19:23:54.956Z,9.18
2023-01-04T19:26:23.139Z,9.62
2023-01-04T19:28:50.602Z,10.78
2023-01-04T19:31:19.966Z,10.12
2023-01-04T19:33:47.078Z,11.21
2023-01-04T19:36:16.409Z,10.05
2023-01-04T19:38:43.039Z,10.73
2023-01-04T19:41:18.675Z,10.02
2023-01-04T19:43:45.453Z,10.58
2023-01-04T19:46:12.809Z,10.28
2023-01-04T19:48:40.061Z,10.47
2023-01-04T19:51:16.946Z,9.59
2023-01-04T19:53:44.395Z,10.73
2023-01-04T19:56:12.928Z,9.51
2023-01-04T19:58:40.736Z,8.91
2023-01-04T20:01:12.298Z,9.42
2023-01-04T20:03:39.197Z,9.14
2023-01-04T20:06:08.247Z,9.21
2023-01-04T20:08:34.945Z,8.93
2023-01-04T20:11:02.409Z,9.03
2023-01-04T20:13:30.700Z,8.83
2023-01-04T20:15:59.588Z,9.39
2023-01-04T20:18:27.131Z,9.14
2023-01-04T20:20:53.789Z,9.20
2023-01-04T20:23:21.714Z,9.45
2023-01-04T20:25:51.778Z,9.21
2023-01-04T20:28:21.218Z,9.17
2023-01-04T20:30:48.172Z,9.65
2023-01-04T20:33:15.172Z,9.51
2023-01-04T20:35:44.139Z,9.38
2023-01-04T20:38:12.262Z,9.57
2023-01-04T20:40:39.512Z,9.46
2023-01-04T20:43:06.507Z,9.43
2023-01-04T20:45:33.104Z,10.04
2023-01-04T20:47:59.804Z,9.33
2023-01-04T20:50:27.715Z,8.92
2023-01-04T20:52:54.367Z,8.62
2023-01-04T20:55:21.000Z,8.53
2023-01-04T20:57:47.608Z,8.38
2023-01-04T21:00:14.863Z,8.65
2023-01-04T21:02:41.708Z,8.51
2023-01-04T21:05:08.979Z,8.58
2023-01-04T21:07:35.646Z,8.85
2023-01-04T21:10:02.358Z,9.36
2023-01-04T21:12:29.013Z,9.83
2023-01-04T21:14:55.639Z,9.82
2023-01-04T21:17:22.350Z,9.80
2023-01-04T21:19:49.015Z,9.26
2023-01-04T21:22:15.685Z,9.48
2023-01-04T21:24:42.366Z,9.50
2023-01-04T21:27:09.049Z,9.98
2023-01-04T21:29:35.725Z,9.96
2023-01-04T21:32:02.349Z,9.82
2023-01-04T21:34:29.008Z,9.93
2023-01-04T21:36:55.655Z,10.06
2023-01-04T21:39:22.271Z,10.06
2023-01-04T21:41:48.938Z,9.92
2023-01-04T21:44:15.622Z,9.85
2023-01-04T21:46:42.355Z,11.03
2023-01-04T21:49:09.150Z,10.72
2023-01-04T21:51:35.755Z,10.59
2023-01-04T21:54:02.401Z,10.44
2023-01-04T21:56:29.153Z,10.67
2023-01-04T21:58:55.813Z,10.68
2023-01-04T22:01:29.644Z,11.23
2023-01-04T22:03:59.591Z,11.22
2023-01-04T22:06:26.351Z,10.41
2023-01-04T22:08:53.355Z,10.69
2023-01-04T22:11:20.673Z,10.59
2023-01-04T22:13:47.316Z,10.98
2023-01-04T22:16:16.726Z,11.64
2023-01-04T22:18:50.424Z,10.84
2023-01-04T22:21:19.804Z,10.96
2023-01-04T22:23:46.498Z,10.57
2023-01-04T22:26:13.237Z,10.33
2023-01-04T22:28:40.675Z,10.40
2023-01-04T22:31:11.047Z,10.69
2023-01-04T22:33:38.618Z,9.69
2023-01-04T22:36:21.956Z,10.29
2023-01-04T22:38:53.860Z,10.07
2023-01-04T22:41:22.425Z,10.34
2023-01-04T22:43:57.334Z,10.37
2023-01-04T22:46:25.830Z,10.02
2023-01-04T22:48:52.716Z,10.53
2023-01-04T22:51:20.914Z,10.34
2023-01-04T22:53:48.249Z,10.55
2023-01-04T22:56:19.386Z,10.44
2023-01-04T22:58:52.369Z,10.31
2023-01-04T23:01:21.929Z,10.20
2023-01-04T23:03:48.952Z,11.05
2023-01-04T23:06:15.875Z,11.28
2023-01-04T23:08:42.644Z,10.94
2023-01-04T23:11:13.139Z,10.89
2023-01-04T23:13:40.398Z,11.55
2023-01-04T23:16:10.427Z,10.57
2023-01-04T23:18:37.560Z,10.26
2023-01-04T23:21:05.392Z,10.17
2023-01-04T23:23:32.947Z,9.24
2023-01-04T23:26:09.055Z,9.47
2023-01-04T23:28:35.738Z,9.47
2023-01-04T23:31:08.692Z,9.59
2023-01-04T23:33:36.673Z,10.01
2023-01-04T23:36:28.188Z,9.57
2023-01-04T23:38:57.067Z,10.07
2023-01-04T23:41:24.526Z,10.12
2023-01-04T23:43:51.178Z,10.22
2023-01-04T23:46:17.899Z,9.78
2023-01-04T23:48:44.783Z,9.91
2023-01-04T23:51:15.081Z,9.74
2023-01-04T23:53:41.912Z,10.06
2023-01-04T23:56:15.548Z,10.05
2023-01-04T23:58:42.579Z,8.09
